sensor_id;sensor_type;location;lat;lon;timestamp;temperature;humidity
68609;SHT31;55581;46.718;7.690;2024-01-30T00:01:59;2.73;84.01
68609;SHT31;55581;46.718;7.690;2024-01-30T00:04:25;2.71;83.08
68609;SHT31;55581;46.718;7.690;2024-01-30T00:06:50;2.67;82.77
68609;SHT31;55581;46.718;7.690;2024-01-30T00:09:16;2.51;83.38
68609;SHT31;55581;46.718;7.690;2024-01-30T00:11:41;2.51;83.27
68609;SHT31;55581;46.718;7.690;2024-01-30T00:14:07;2.47;83.63
68609;SHT31;55581;46.718;7.690;2024-01-30T00:16:34;2.54;84.52
68609;SHT31;55581;46.718;7.690;2024-01-30T00:19:00;2.53;83.89
68609;SHT31;55581;46.718;7.690;2024-01-30T00:21:27;2.56;83.75
68609;SHT31;55581;46.718;7.690;2024-01-30T00:23:53;2.54;84.14
68609;SHT31;55581;46.718;7.690;2024-01-30T00:26:18;2.58;84.45
68609;SHT31;55581;46.718;7.690;2024-01-30T00:28:43;2.62;83.75
68609;SHT31;55581;46.718;7.690;2024-01-30T00:31:11;2.61;85.28
68609;SHT31;55581;46.718;7.690;2024-01-30T00:33:40;2.57;83.63
68609;SHT31;55581;46.718;7.690;2024-01-30T00:36:07;2.44;83.99
68609;SHT31;55581;46.718;7.690;2024-01-30T00:38:33;2.40;84.04
68609;SHT31;55581;46.718;7.690;2024-01-30T00:40:58;2.41;83.69
68609;SHT31;55581;46.718;7.690;2024-01-30T00:43:24;2.39;83.49
68609;SHT31;55581;46.718;7.690;2024-01-30T00:45:52;2.37;83.51
68609;SHT31;55581;46.718;7.690;2024-01-30T00:48:18;2.49;86.05
68609;SHT31;55581;46.718;7.690;2024-01-30T00:50:43;2.57;84.65
68609;SHT31;55581;46.718;7.690;2024-01-30T00:53:09;2.54;85.44
68609;SHT31;55581;46.718;7.690;2024-01-30T00:55:37;2.57;86.49
68609;SHT31;55581;46.718;7.690;2024-01-30T00:58:03;2.61;86.05
68609;SHT31;55581;46.718;7.690;2024-01-30T01:00:28;2.60;85.29
68609;SHT31;55581;46.718;7.690;2024-01-30T01:03:01;2.67;84.87
68609;SHT31;55581;46.718;7.690;2024-01-30T01:05:28;2.65;84.36
68609;SHT31;55581;46.718;7.690;2024-01-30T01:07:54;2.60;84.68
68609;SHT31;55581;46.718;7.690;2024-01-30T01:10:20;2.56;85.18
68609;SHT31;55581;46.718;7.690;2024-01-30T01:12:45;2.54;86.05
68609;SHT31;55581;46.718;7.690;2024-01-30T01:15:13;2.53;87.22
68609;SHT31;55581;46.718;7.690;2024-01-30T01:17:39;2.54;86.42
68609;SHT31;55581;46.718;7.690;2024-01-30T01:20:06;2.56;86.12
68609;SHT31;55581;46.718;7.690;2024-01-30T01:22:32;2.49;86.85
68609;SHT31;55581;46.718;7.690;2024-01-30T01:24:58;2.41;87.12
68609;SHT31;55581;46.718;7.690;2024-01-30T01:27:24;2.49;87.07
68609;SHT31;55581;46.718;7.690;2024-01-30T01:29:50;2.41;86.81
68609;SHT31;55581;46.718;7.690;2024-01-30T01:32:15;2.37;87.09
68609;SHT31;55581;46.718;7.690;2024-01-30T01:34:41;2.30;86.94
68609;SHT31;55581;46.718;7.690;2024-01-30T01:37:06;2.29;87.06
68609;SHT31;55581;46.718;7.690;2024-01-30T01:39:32;2.32;87.26
68609;SHT31;55581;46.718;7.690;2024-01-30T01:41:58;2.36;87.51
68609;SHT31;55581;46.718;7.690;2024-01-30T01:44:23;2.36;87.16
68609;SHT31;55581;46.718;7.690;2024-01-30T01:46:49;2.37;85.96
68609;SHT31;55581;46.718;7.690;2024-01-30T01:49:14;2.28;86.59
68609;SHT31;55581;46.718;7.690;2024-01-30T01:51:43;2.22;87.52
68609;SHT31;55581;46.718;7.690;2024-01-30T01:54:12;2.26;87.70
68609;SHT31;55581;46.718;7.690;2024-01-30T01:56:38;2.29;86.62
68609;SHT31;55581;46.718;7.690;2024-01-30T01:59:06;2.28;85.82
68609;SHT31;55581;46.718;7.690;2024-01-30T02:01:33;2.36;86.74
68609;SHT31;55581;46.718;7.690;2024-01-30T02:04:01;2.40;87.20
68609;SHT31;55581;46.718;7.690;2024-01-30T02:06:27;2.34;86.70
68609;SHT31;55581;46.718;7.690;2024-01-30T02:08:53;2.37;86.14
68609;SHT31;55581;46.718;7.690;2024-01-30T02:11:20;2.36;86.58
68609;SHT31;55581;46.718;7.690;2024-01-30T02:13:46;2.33;86.54
68609;SHT31;55581;46.718;7.690;2024-01-30T02:16:11;2.25;86.27
68609;SHT31;55581;46.718;7.690;2024-01-30T02:18:41;2.23;86.68
68609;SHT31;55581;46.718;7.690;2024-01-30T02:21:10;2.23;87.72
68609;SHT31;55581;46.718;7.690;2024-01-30T02:23:36;2.23;88.38
68609;SHT31;55581;46.718;7.690;2024-01-30T02:26:03;2.26;88.28
68609;SHT31;55581;46.718;7.690;2024-01-30T02:28:28;2.32;88.30
68609;SHT31;55581;46.718;7.690;2024-01-30T02:30:53;2.32;88.50
68609;SHT31;55581;46.718;7.690;2024-01-30T02:33:19;2.32;88.88
68609;SHT31;55581;46.718;7.690;2024-01-30T02:35:44;2.33;88.11
68609;SHT31;55581;46.718;7.690;2024-01-30T02:38:10;2.32;87.55
68609;SHT31;55581;46.718;7.690;2024-01-30T02:40:35;2.34;88.15
68609;SHT31;55581;46.718;7.690;2024-01-30T02:43:02;2.25;88.37
68609;SHT31;55581;46.718;7.690;2024-01-30T02:45:28;2.25;89.18
68609;SHT31;55581;46.718;7.690;2024-01-30T02:47:53;2.22;89.69
68609;SHT31;55581;46.718;7.690;2024-01-30T02:50:19;2.20;89.76
68609;SHT31;55581;46.718;7.690;2024-01-30T02:52:47;2.26;88.81
68609;SHT31;55581;46.718;7.690;2024-01-30T02:55:14;2.19;87.88
68609;SHT31;55581;46.718;7.690;2024-01-30T02:57:42;2.18;88.04
68609;SHT31;55581;46.718;7.690;2024-01-30T03:00:08;2.18;88.54
68609;SHT31;55581;46.718;7.690;2024-01-30T03:02:35;2.16;87.81
68609;SHT31;55581;46.718;7.690;2024-01-30T03:05:03;2.13;86.33
68609;SHT31;55581;46.718;7.690;2024-01-30T03:07:31;2.11;85.67
68609;SHT31;55581;46.718;7.690;2024-01-30T03:09:57;2.06;86.11
68609;SHT31;55581;46.718;7.690;2024-01-30T03:12:22;2.08;89.01
68609;SHT31;55581;46.718;7.690;2024-01-30T03:14:48;2.05;88.36
68609;SHT31;55581;46.718;7.690;2024-01-30T03:17:16;2.08;88.01
68609;SHT31;55581;46.718;7.690;2024-01-30T03:19:41;2.12;86.28
68609;SHT31;55581;46.718;7.690;2024-01-30T03:22:09;2.13;86.05
68609;SHT31;55581;46.718;7.690;2024-01-30T03:24:34;2.16;86.17
68609;SHT31;55581;46.718;7.690;2024-01-30T03:27:00;2.15;86.12
68609;SHT31;55581;46.718;7.690;2024-01-30T03:29:25;2.12;86.95
68609;SHT31;55581;46.718;7.690;2024-01-30T03:31:51;2.15;87.06
68609;SHT31;55581;46.718;7.690;2024-01-30T03:34:16;2.09;86.61
68609;SHT31;55581;46.718;7.690;2024-01-30T03:36:41;2.05;87.57
68609;SHT31;55581;46.718;7.690;2024-01-30T03:39:07;2.05;87.78
68609;SHT31;55581;46.718;7.690;2024-01-30T03:41:32;1.97;87.33
68609;SHT31;55581;46.718;7.690;2024-01-30T03:43:58;1.94;87.57
68609;SHT31;55581;46.718;7.690;2024-01-30T03:46:23;1.86;88.77
68609;SHT31;55581;46.718;7.690;2024-01-30T03:48:49;1.88;89.65
68609;SHT31;55581;46.718;7.690;2024-01-30T03:51:17;1.88;89.99
68609;SHT31;55581;46.718;7.690;2024-01-30T03:53:43;1.92;89.92
68609;SHT31;55581;46.718;7.690;2024-01-30T03:56:09;1.94;89.89
68609;SHT31;55581;46.718;7.690;2024-01-30T03:58:34;1.94;89.85
68609;SHT31;55581;46.718;7.690;2024-01-30T04:01:00;1.86;89.17
68609;SHT31;55581;46.718;7.690;2024-01-30T04:03:25;1.89;88.81
68609;SHT31;55581;46.718;7.690;2024-01-30T04:05:54;1.79;88.17
68609;SHT31;55581;46.718;7.690;2024-01-30T04:08:20;1.74;88.10
68609;SHT31;55581;46.718;7.690;2024-01-30T04:10:46;1.77;89.17
68609;SHT31;55581;46.718;7.690;2024-01-30T04:13:11;1.81;89.02
68609;SHT31;55581;46.718;7.690;2024-01-30T04:15:37;1.77;88.60
68609;SHT31;55581;46.718;7.690;2024-01-30T04:18:03;1.68;88.36
68609;SHT31;55581;46.718;7.690;2024-01-30T04:20:29;1.74;89.33
68609;SHT31;55581;46.718;7.690;2024-01-30T04:22:54;1.78;88.74
68609;SHT31;55581;46.718;7.690;2024-01-30T04:25:20;1.70;88.00
68609;SHT31;55581;46.718;7.690;2024-01-30T04:27:45;1.67;88.49
68609;SHT31;55581;46.718;7.690;2024-01-30T04:30:11;1.64;87.88
68609;SHT31;55581;46.718;7.690;2024-01-30T04:32:39;1.65;88.81
68609;SHT31;55581;46.718;7.690;2024-01-30T04:35:07;1.67;88.83
68609;SHT31;55581;46.718;7.690;2024-01-30T04:37:32;1.78;87.29
68609;SHT31;55581;46.718;7.690;2024-01-30T04:39:58;1.88;85.95
68609;SHT31;55581;46.718;7.690;2024-01-30T04:42:23;1.73;86.68
68609;SHT31;55581;46.718;7.690;2024-01-30T04:44:49;1.63;87.26
68609;SHT31;55581;46.718;7.690;2024-01-30T04:47:15;1.63;86.79
68609;SHT31;55581;46.718;7.690;2024-01-30T04:49:40;1.56;87.23
68609;SHT31;55581;46.718;7.690;2024-01-30T04:52:06;1.51;87.65
68609;SHT31;55581;46.718;7.690;2024-01-30T04:54:33;1.48;87.53
68609;SHT31;55581;46.718;7.690;2024-01-30T04:57:01;1.54;88.22
68609;SHT31;55581;46.718;7.690;2024-01-30T04:59:27;1.63;89.69
68609;SHT31;55581;46.718;7.690;2024-01-30T05:01:52;1.64;88.98
68609;SHT31;55581;46.718;7.690;2024-01-30T05:04:18;1.64;87.89
68609;SHT31;55581;46.718;7.690;2024-01-30T05:06:43;1.70;88.91
68609;SHT31;55581;46.718;7.690;2024-01-30T05:09:09;1.71;88.38
68609;SHT31;55581;46.718;7.690;2024-01-30T05:11:38;1.81;88.58
68609;SHT31;55581;46.718;7.690;2024-01-30T05:14:07;1.89;89.35
68609;SHT31;55581;46.718;7.690;2024-01-30T05:16:34;1.89;89.84
68609;SHT31;55581;46.718;7.690;2024-01-30T05:18:59;1.89;90.51
68609;SHT31;55581;46.718;7.690;2024-01-30T05:21:25;1.88;89.69
68609;SHT31;55581;46.718;7.690;2024-01-30T05:23:50;1.88;89.61
68609;SHT31;55581;46.718;7.690;2024-01-30T05:26:16;1.86;89.17
68609;SHT31;55581;46.718;7.690;2024-01-30T05:28:42;1.86;88.94
68609;SHT31;55581;46.718;7.690;2024-01-30T05:31:09;1.88;88.76
68609;SHT31;55581;46.718;7.690;2024-01-30T05:33:35;1.89;89.18
68609;SHT31;55581;46.718;7.690;2024-01-30T05:36:01;1.84;89.42
68609;SHT31;55581;46.718;7.690;2024-01-30T05:38:26;1.94;89.83
68609;SHT31;55581;46.718;7.690;2024-01-30T05:40:52;1.91;90.00
68609;SHT31;55581;46.718;7.690;2024-01-30T05:43:20;1.97;90.58
68609;SHT31;55581;46.718;7.690;2024-01-30T05:45:45;1.99;89.81
68609;SHT31;55581;46.718;7.690;2024-01-30T05:48:11;1.99;89.63
68609;SHT31;55581;46.718;7.690;2024-01-30T05:50:36;1.99;88.98
68609;SHT31;55581;46.718;7.690;2024-01-30T05:53:02;2.01;89.01
68609;SHT31;55581;46.718;7.690;2024-01-30T05:55:27;1.99;88.99
68609;SHT31;55581;46.718;7.690;2024-01-30T05:57:55;1.99;88.49
68609;SHT31;55581;46.718;7.690;2024-01-30T06:00:23;1.99;88.49
68609;SHT31;55581;46.718;7.690;2024-01-30T06:02:48;2.06;88.03
68609;SHT31;55581;46.718;7.690;2024-01-30T06:05:14;2.02;86.90
68609;SHT31;55581;46.718;7.690;2024-01-30T06:07:39;2.02;87.45
68609;SHT31;55581;46.718;7.690;2024-01-30T06:10:05;2.06;87.22
68609;SHT31;55581;46.718;7.690;2024-01-30T06:12:32;2.02;86.01
68609;SHT31;55581;46.718;7.690;2024-01-30T06:14:57;1.99;86.54
68609;SHT31;55581;46.718;7.690;2024-01-30T06:17:23;1.94;86.13
68609;SHT31;55581;46.718;7.690;2024-01-30T06:19:49;2.01;86.00
68609;SHT31;55581;46.718;7.690;2024-01-30T06:22:16;2.08;85.58
68609;SHT31;55581;46.718;7.690;2024-01-30T06:24:41;2.02;85.45
68609;SHT31;55581;46.718;7.690;2024-01-30T06:27:06;2.16;85.71
68609;SHT31;55581;46.718;7.690;2024-01-30T06:29:32;2.09;86.03
68609;SHT31;55581;46.718;7.690;2024-01-30T06:31:57;2.11;86.15
68609;SHT31;55581;46.718;7.690;2024-01-30T06:34:23;2.06;86.95
68609;SHT31;55581;46.718;7.690;2024-01-30T06:36:48;2.08;87.47
68609;SHT31;55581;46.718;7.690;2024-01-30T06:39:14;2.06;87.32
68609;SHT31;55581;46.718;7.690;2024-01-30T06:41:39;2.06;86.73
68609;SHT31;55581;46.718;7.690;2024-01-30T06:44:05;2.06;87.45
68609;SHT31;55581;46.718;7.690;2024-01-30T06:46:32;2.05;87.87
68609;SHT31;55581;46.718;7.690;2024-01-30T06:49:00;2.03;87.87
68609;SHT31;55581;46.718;7.690;2024-01-30T06:51:26;2.05;88.22
68609;SHT31;55581;46.718;7.690;2024-01-30T06:53:52;2.06;89.25
68609;SHT31;55581;46.718;7.690;2024-01-30T06:56:17;2.08;89.87
68609;SHT31;55581;46.718;7.690;2024-01-30T06:58:47;2.09;90.11
68609;SHT31;55581;46.718;7.690;2024-01-30T07:01:14;2.08;88.26
68609;SHT31;55581;46.718;7.690;2024-01-30T07:03:40;2.08;88.41
68609;SHT31;55581;46.718;7.690;2024-01-30T07:06:05;2.03;88.47
68609;SHT31;55581;46.718;7.690;2024-01-30T07:08:31;2.03;88.46
68609;SHT31;55581;46.718;7.690;2024-01-30T07:10:56;2.03;89.49
68609;SHT31;55581;46.718;7.690;2024-01-30T07:13:22;2.06;89.23
68609;SHT31;55581;46.718;7.690;2024-01-30T07:15:47;2.08;89.43
68609;SHT31;55581;46.718;7.690;2024-01-30T07:18:12;2.11;89.25
68609;SHT31;55581;46.718;7.690;2024-01-30T07:20:39;2.18;91.21
68609;SHT31;55581;46.718;7.690;2024-01-30T07:23:13;2.20;90.56
68609;SHT31;55581;46.718;7.690;2024-01-30T07:25:41;2.23;89.75
68609;SHT31;55581;46.718;7.690;2024-01-30T07:28:10;2.23;89.61
68609;SHT31;55581;46.718;7.690;2024-01-30T07:30:36;2.30;89.20
68609;SHT31;55581;46.718;7.690;2024-01-30T07:33:02;2.46;90.98
68609;SHT31;55581;46.718;7.690;2024-01-30T07:35:27;2.67;91.97
68609;SHT31;55581;46.718;7.690;2024-01-30T07:37:53;2.88;92.16
68609;SHT31;55581;46.718;7.690;2024-01-30T07:40:18;3.08;92.11
68609;SHT31;55581;46.718;7.690;2024-01-30T07:42:46;3.24;91.72
68609;SHT31;55581;46.718;7.690;2024-01-30T07:45:11;3.34;91.56
68609;SHT31;55581;46.718;7.690;2024-01-30T07:47:39;3.42;89.50
68609;SHT31;55581;46.718;7.690;2024-01-30T07:50:05;3.27;86.30
68609;SHT31;55581;46.718;7.690;2024-01-30T07:52:31;3.19;85.56
68609;SHT31;55581;46.718;7.690;2024-01-30T07:54:56;3.11;85.60
68609;SHT31;55581;46.718;7.690;2024-01-30T07:57:26;2.99;85.92
68609;SHT31;55581;46.718;7.690;2024-01-30T07:59:52;3.04;87.31
68609;SHT31;55581;46.718;7.690;2024-01-30T08:02:17;3.02;87.29
68609;SHT31;55581;46.718;7.690;2024-01-30T08:04:42;3.13;87.88
68609;SHT31;55581;46.718;7.690;2024-01-30T08:07:08;3.34;91.05
68609;SHT31;55581;46.718;7.690;2024-01-30T08:09:33;3.64;91.62
68609;SHT31;55581;46.718;7.690;2024-01-30T08:11:59;3.88;91.31
68609;SHT31;55581;46.718;7.690;2024-01-30T08:14:24;4.05;90.96
68609;SHT31;55581;46.718;7.690;2024-01-30T08:16:55;4.19;90.49
68609;SHT31;55581;46.718;7.690;2024-01-30T08:19:21;4.30;90.01
68609;SHT31;55581;46.718;7.690;2024-01-30T08:21:46;4.46;88.33
68609;SHT31;55581;46.718;7.690;2024-01-30T08:24:12;4.52;87.39
68609;SHT31;55581;46.718;7.690;2024-01-30T08:26:37;4.71;86.71
68609;SHT31;55581;46.718;7.690;2024-01-30T08:29:03;4.80;86.74
68609;SHT31;55581;46.718;7.690;2024-01-30T08:31:31;4.82;87.24
68609;SHT31;55581;46.718;7.690;2024-01-30T08:33:57;4.92;87.53
68609;SHT31;55581;46.718;7.690;2024-01-30T08:36:22;4.96;87.40
68609;SHT31;55581;46.718;7.690;2024-01-30T08:38:47;5.15;86.83
68609;SHT31;55581;46.718;7.690;2024-01-30T08:41:13;5.33;85.70
68609;SHT31;55581;46.718;7.690;2024-01-30T08:43:38;5.46;85.22
68609;SHT31;55581;46.718;7.690;2024-01-30T08:46:06;5.54;85.45
68609;SHT31;55581;46.718;7.690;2024-01-30T08:48:31;5.71;84.56
68609;SHT31;55581;46.718;7.690;2024-01-30T08:50:57;5.77;84.30
68609;SHT31;55581;46.718;7.690;2024-01-30T08:53:22;5.84;83.89
68609;SHT31;55581;46.718;7.690;2024-01-30T08:55:48;5.85;83.60
68609;SHT31;55581;46.718;7.690;2024-01-30T08:58:13;5.94;83.84
68609;SHT31;55581;46.718;7.690;2024-01-30T09:00:39;6.01;83.03
68609;SHT31;55581;46.718;7.690;2024-01-30T09:03:06;6.06;83.76
68609;SHT31;55581;46.718;7.690;2024-01-30T09:05:31;6.08;84.06
68609;SHT31;55581;46.718;7.690;2024-01-30T09:07:59;5.98;84.07
68609;SHT31;55581;46.718;7.690;2024-01-30T09:10:24;6.08;83.02
68609;SHT31;55581;46.718;7.690;2024-01-30T09:12:50;6.02;83.18
68609;SHT31;55581;46.718;7.690;2024-01-30T09:15:15;5.90;83.94
68609;SHT31;55581;46.718;7.690;2024-01-30T09:17:41;5.94;83.41
68609;SHT31;55581;46.718;7.690;2024-01-30T09:20:06;5.91;83.32
68609;SHT31;55581;46.718;7.690;2024-01-30T09:22:32;5.81;85.12
68609;SHT31;55581;46.718;7.690;2024-01-30T09:24:57;5.88;84.93
68609;SHT31;55581;46.718;7.690;2024-01-30T09:27:23;5.90;84.09
68609;SHT31;55581;46.718;7.690;2024-01-30T09:29:51;5.79;84.89
68609;SHT31;55581;46.718;7.690;2024-01-30T09:32:17;5.73;85.39
68609;SHT31;55581;46.718;7.690;2024-01-30T09:34:43;5.77;84.37
68609;SHT31;55581;46.718;7.690;2024-01-30T09:37:09;5.82;84.63
68609;SHT31;55581;46.718;7.690;2024-01-30T09:39:34;5.92;84.32
68609;SHT31;55581;46.718;7.690;2024-01-30T09:42:36;5.97;84.21
68609;SHT31;55581;46.718;7.690;2024-01-30T09:45:02;5.98;83.36
68609;SHT31;55581;46.718;7.690;2024-01-30T09:47:31;5.99;82.84
68609;SHT31;55581;46.718;7.690;2024-01-30T09:49:58;5.92;82.23
68609;SHT31;55581;46.718;7.690;2024-01-30T09:52:26;5.94;82.72
68609;SHT31;55581;46.718;7.690;2024-01-30T09:54:54;5.95;83.01
68609;SHT31;55581;46.718;7.690;2024-01-30T09:57:22;6.06;82.04
68609;SHT31;55581;46.718;7.690;2024-01-30T09:59:47;6.02;82.67
68609;SHT31;55581;46.718;7.690;2024-01-30T10:02:13;6.03;80.76
68609;SHT31;55581;46.718;7.690;2024-01-30T10:04:38;6.08;81.09
68609;SHT31;55581;46.718;7.690;2024-01-30T10:07:04;6.22;77.54
68609;SHT31;55581;46.718;7.690;2024-01-30T10:09:32;6.43;75.20
68609;SHT31;55581;46.718;7.690;2024-01-30T10:11:58;6.77;74.59
68609;SHT31;55581;46.718;7.690;2024-01-30T10:14:24;7.06;70.85
68609;SHT31;55581;46.718;7.690;2024-01-30T10:16:52;7.09;72.47
68609;SHT31;55581;46.718;7.690;2024-01-30T10:19:18;7.16;74.91
68609;SHT31;55581;46.718;7.690;2024-01-30T10:21:43;7.13;76.62
68609;SHT31;55581;46.718;7.690;2024-01-30T10:24:10;6.96;77.25
68609;SHT31;55581;46.718;7.690;2024-01-30T10:26:38;6.78;76.08
68609;SHT31;55581;46.718;7.690;2024-01-30T10:29:03;6.80;78.08
68609;SHT31;55581;46.718;7.690;2024-01-30T10:31:31;6.78;79.39
68609;SHT31;55581;46.718;7.690;2024-01-30T10:33:57;6.94;78.68
68609;SHT31;55581;46.718;7.690;2024-01-30T10:36:28;7.05;77.12
68609;SHT31;55581;46.718;7.690;2024-01-30T10:38:55;7.04;77.37
68609;SHT31;55581;46.718;7.690;2024-01-30T10:41:26;6.95;75.09
68609;SHT31;55581;46.718;7.690;2024-01-30T10:44:06;7.01;76.82
68609;SHT31;55581;46.718;7.690;2024-01-30T10:46:33;6.94;76.83
68609;SHT31;55581;46.718;7.690;2024-01-30T10:49:00;6.94;78.09
68609;SHT31;55581;46.718;7.690;2024-01-30T10:51:26;6.98;79.83
68609;SHT31;55581;46.718;7.690;2024-01-30T10:53:52;6.91;81.07
68609;SHT31;55581;46.718;7.690;2024-01-30T10:56:22;6.75;80.24
68609;SHT31;55581;46.718;7.690;2024-01-30T10:58:52;6.60;79.97
68609;SHT31;55581;46.718;7.690;2024-01-30T11:01:24;6.49;81.21
68609;SHT31;55581;46.718;7.690;2024-01-30T11:03:53;6.49;81.24
68609;SHT31;55581;46.718;7.690;2024-01-30T11:06:22;6.50;81.51
68609;SHT31;55581;46.718;7.690;2024-01-30T11:09:03;6.47;81.50
68609;SHT31;55581;46.718;7.690;2024-01-30T11:11:41;6.50;81.07
68609;SHT31;55581;46.718;7.690;2024-01-30T11:14:12;6.53;80.42
68609;SHT31;55581;46.718;7.690;2024-01-30T11:16:40;6.67;79.84
68609;SHT31;55581;46.718;7.690;2024-01-30T11:19:10;6.96;79.59
68609;SHT31;55581;46.718;7.690;2024-01-30T11:21:43;7.12;78.59
68609;SHT31;55581;46.718;7.690;2024-01-30T11:24:08;7.06;76.67
68609;SHT31;55581;46.718;7.690;2024-01-30T11:26:34;7.01;75.94
68609;SHT31;55581;46.718;7.690;2024-01-30T11:29:03;6.98;75.68
68609;SHT31;55581;46.718;7.690;2024-01-30T11:31:29;6.96;74.29
68609;SHT31;55581;46.718;7.690;2024-01-30T11:33:56;6.92;73.87
68609;SHT31;55581;46.718;7.690;2024-01-30T11:36:25;6.99;74.16
68609;SHT31;55581;46.718;7.690;2024-01-30T11:38:54;7.15;73.65
68609;SHT31;55581;46.718;7.690;2024-01-30T11:41:20;7.33;71.51
68609;SHT31;55581;46.718;7.690;2024-01-30T11:43:52;7.49;70.17
68609;SHT31;55581;46.718;7.690;2024-01-30T11:46:18;7.63;70.20
68609;SHT31;55581;46.718;7.690;2024-01-30T11:48:44;7.84;69.94
68609;SHT31;55581;46.718;7.690;2024-01-30T11:51:09;8.08;67.93
68609;SHT31;55581;46.718;7.690;2024-01-30T11:53:34;8.25;67.36
68609;SHT31;55581;46.718;7.690;2024-01-30T11:56:00;8.26;67.99
68609;SHT31;55581;46.718;7.690;2024-01-30T11:58:25;8.34;68.06
68609;SHT31;55581;46.718;7.690;2024-01-30T12:00:57;8.12;68.91
68609;SHT31;55581;46.718;7.690;2024-01-30T12:03:25;8.09;69.48
68609;SHT31;55581;46.718;7.690;2024-01-30T12:06:00;8.15;70.07
68609;SHT31;55581;46.718;7.690;2024-01-30T12:08:28;8.15;70.55
68609;SHT31;55581;46.718;7.690;2024-01-30T12:10:57;8.21;71.06
68609;SHT31;55581;46.718;7.690;2024-01-30T12:13:23;8.15;70.78
68609;SHT31;55581;46.718;7.690;2024-01-30T12:15:49;8.12;71.48
68609;SHT31;55581;46.718;7.690;2024-01-30T12:18:18;8.15;70.50
68609;SHT31;55581;46.718;7.690;2024-01-30T12:20:44;8.22;69.96
68609;SHT31;55581;46.718;7.690;2024-01-30T12:23:11;8.26;70.40
68609;SHT31;55581;46.718;7.690;2024-01-30T12:25:37;8.32;69.87
68609;SHT31;55581;46.718;7.690;2024-01-30T12:28:03;8.46;68.41
68609;SHT31;55581;46.718;7.690;2024-01-30T12:30:29;8.74;67.40
68609;SHT31;55581;46.718;7.690;2024-01-30T12:32:55;8.93;65.02
68609;SHT31;55581;46.718;7.690;2024-01-30T12:35:20;9.15;65.45
68609;SHT31;55581;46.718;7.690;2024-01-30T12:37:47;9.20;66.19
68609;SHT31;55581;46.718;7.690;2024-01-30T12:40:14;9.14;65.40
68609;SHT31;55581;46.718;7.690;2024-01-30T12:42:45;9.22;66.31
68609;SHT31;55581;46.718;7.690;2024-01-30T12:45:14;9.26;66.73
68609;SHT31;55581;46.718;7.690;2024-01-30T12:47:47;9.19;66.35
68609;SHT31;55581;46.718;7.690;2024-01-30T12:50:13;9.15;67.67
68609;SHT31;55581;46.718;7.690;2024-01-30T12:52:45;9.08;67.17
68609;SHT31;55581;46.718;7.690;2024-01-30T12:55:10;9.08;67.00
68609;SHT31;55581;46.718;7.690;2024-01-30T12:57:36;9.14;67.83
68609;SHT31;55581;46.718;7.690;2024-01-30T13:00:02;9.25;67.05
68609;SHT31;55581;46.718;7.690;2024-01-30T13:02:27;9.36;65.62
68609;SHT31;55581;46.718;7.690;2024-01-30T13:05:00;9.48;64.83
68609;SHT31;55581;46.718;7.690;2024-01-30T13:07:25;9.60;64.60
68609;SHT31;55581;46.718;7.690;2024-01-30T13:09:51;9.65;65.96
68609;SHT31;55581;46.718;7.690;2024-01-30T13:12:18;9.64;65.95
68609;SHT31;55581;46.718;7.690;2024-01-30T13:14:44;9.57;65.37
68609;SHT31;55581;46.718;7.690;2024-01-30T13:17:09;9.65;67.21
68609;SHT31;55581;46.718;7.690;2024-01-30T13:19:34;9.70;68.23
68609;SHT31;55581;46.718;7.690;2024-01-30T13:22:00;9.88;66.97
68609;SHT31;55581;46.718;7.690;2024-01-30T13:24:25;10.05;65.49
68609;SHT31;55581;46.718;7.690;2024-01-30T13:26:52;10.43;66.59
68609;SHT31;55581;46.718;7.690;2024-01-30T13:29:18;10.53;66.23
68609;SHT31;55581;46.718;7.690;2024-01-30T13:31:44;10.49;65.04
68609;SHT31;55581;46.718;7.690;2024-01-30T13:34:11;10.28;65.66
68609;SHT31;55581;46.718;7.690;2024-01-30T13:36:38;10.28;64.71
68609;SHT31;55581;46.718;7.690;2024-01-30T13:39:03;10.32;62.98
68609;SHT31;55581;46.718;7.690;2024-01-30T13:41:32;10.30;66.98
68609;SHT31;55581;46.718;7.690;2024-01-30T13:43:58;10.22;67.89
68609;SHT31;55581;46.718;7.690;2024-01-30T13:46:26;10.02;68.05
68609;SHT31;55581;46.718;7.690;2024-01-30T13:48:52;9.97;68.31
68609;SHT31;55581;46.718;7.690;2024-01-30T13:51:17;9.74;68.77
68609;SHT31;55581;46.718;7.690;2024-01-30T13:53:45;9.74;68.48
68609;SHT31;55581;46.718;7.690;2024-01-30T13:56:10;9.69;68.90
68609;SHT31;55581;46.718;7.690;2024-01-30T13:58:36;9.60;70.70
68609;SHT31;55581;46.718;7.690;2024-01-30T14:01:02;9.51;72.38
68609;SHT31;55581;46.718;7.690;2024-01-30T14:03:28;9.36;73.00
68609;SHT31;55581;46.718;7.690;2024-01-30T14:05:54;9.27;73.46
68609;SHT31;55581;46.718;7.690;2024-01-30T14:08:19;9.14;75.03
68609;SHT31;55581;46.718;7.690;2024-01-30T14:10:47;8.98;72.59
68609;SHT31;55581;46.718;7.690;2024-01-30T14:13:12;8.95;73.07
68609;SHT31;55581;46.718;7.690;2024-01-30T14:15:38;8.93;73.04
68609;SHT31;55581;46.718;7.690;2024-01-30T14:18:04;8.77;73.02
68609;SHT31;55581;46.718;7.690;2024-01-30T14:20:30;8.70;73.13
68609;SHT31;55581;46.718;7.690;2024-01-30T14:22:56;8.72;71.88
68609;SHT31;55581;46.718;7.690;2024-01-30T14:25:22;8.70;71.47
68609;SHT31;55581;46.718;7.690;2024-01-30T14:27:49;8.65;70.46
68609;SHT31;55581;46.718;7.690;2024-01-30T14:30:15;8.74;69.32
68609;SHT31;55581;46.718;7.690;2024-01-30T14:32:42;8.70;69.43
68609;SHT31;55581;46.718;7.690;2024-01-30T14:35:09;8.77;68.44
68609;SHT31;55581;46.718;7.690;2024-01-30T14:37:35;8.80;67.90
68609;SHT31;55581;46.718;7.690;2024-01-30T14:40:01;8.84;67.89
68609;SHT31;55581;46.718;7.690;2024-01-30T14:42:26;8.77;68.54
68609;SHT31;55581;46.718;7.690;2024-01-30T14:44:58;8.72;68.29
68609;SHT31;55581;46.718;7.690;2024-01-30T14:47:24;8.72;68.38
68609;SHT31;55581;46.718;7.690;2024-01-30T14:49:50;8.68;68.50
68609;SHT31;55581;46.718;7.690;2024-01-30T14:52:17;8.70;68.85
68609;SHT31;55581;46.718;7.690;2024-01-30T14:54:42;8.75;68.11
68609;SHT31;55581;46.718;7.690;2024-01-30T14:57:10;8.72;68.67
68609;SHT31;55581;46.718;7.690;2024-01-30T14:59:38;8.74;68.99
68609;SHT31;55581;46.718;7.690;2024-01-30T15:02:06;8.74;69.29
68609;SHT31;55581;46.718;7.690;2024-01-30T15:04:34;8.74;68.27
68609;SHT31;55581;46.718;7.690;2024-01-30T15:07:00;8.67;69.20
68609;SHT31;55581;46.718;7.690;2024-01-30T15:09:25;8.64;69.11
68609;SHT31;55581;46.718;7.690;2024-01-30T15:11:52;8.64;70.24
68609;SHT31;55581;46.718;7.690;2024-01-30T15:14:17;8.61;71.35
68609;SHT31;55581;46.718;7.690;2024-01-30T15:16:47;8.56;71.49
68609;SHT31;55581;46.718;7.690;2024-01-30T15:19:12;8.52;71.75
68609;SHT31;55581;46.718;7.690;2024-01-30T15:21:38;8.39;73.41
68609;SHT31;55581;46.718;7.690;2024-01-30T15:24:03;8.30;74.32
68609;SHT31;55581;46.718;7.690;2024-01-30T15:26:29;8.29;73.76
68609;SHT31;55581;46.718;7.690;2024-01-30T15:28:54;8.30;70.86
68609;SHT31;55581;46.718;7.690;2024-01-30T15:31:20;8.19;70.60
68609;SHT31;55581;46.718;7.690;2024-01-30T15:33:45;8.16;71.75
68609;SHT31;55581;46.718;7.690;2024-01-30T15:36:11;8.19;73.16
68609;SHT31;55581;46.718;7.690;2024-01-30T15:38:42;8.17;72.90
68609;SHT31;55581;46.718;7.690;2024-01-30T15:41:07;8.08;73.32